Wetterdaten: aktuell Donnerstag, 09.04.2020 00:30
Datum Zeit Temp. Feuchte Luftdruck Regen Wind Richtung Richtung Sonnenschein UV Solar Windchill Windben
09.04.2020 00:30 9.2 C 66 % 1022.1 hPa 0.0 mm 3.2 km/h O-NO 71 0 min 0.0 UV-I 0.0 W/m 9.2 C 4.8 km/h
09.04.2020 00:20 9.6 C 66 % 1022.1 hPa 0.0 mm 1.7 km/h O-NO 71 0 min 0.0 UV-I 0.0 W/m 9.6 C 4.8 km/h
09.04.2020 00:10 10.1 C 64 % 1022.0 hPa 0.0 mm 0.0 km/h O-NO 71 0 min 0.0 UV-I 0.0 W/m 10.1 C 1.6 km/h
09.04.2020 00:00 10.1 C 64 % 1022.1 hPa 0.0 mm 0.8 km/h O-NO 71 0 min 0.0 UV-I 0.0 W/m 10.1 C 3.2 km/h
08.04.2020 23:50 10.2 C 63 % 1022.1 hPa 0.0 mm 0.2 km/h O-NO 71 0 min 0.0 UV-I 0.0 W/m 10.2 C 3.2 km/h
08.04.2020 23:40 10.6 C 60 % 1022.0 hPa 0.0 mm 0.1 km/h O-NO 71 0 min 0.0 UV-I 0.0 W/m 10.6 C 1.6 km/h
08.04.2020 23:30 10.9 C 58 % 1022.0 hPa 0.0 mm 0.1 km/h O-NO 71 0 min 0.0 UV-I 0.0 W/m 10.9 C 1.6 km/h
08.04.2020 23:20 10.9 C 58 % 1022.0 hPa 0.0 mm 0.1 km/h O-NO 71 0 min 0.0 UV-I 0.0 W/m 10.9 C 1.6 km/h
08.04.2020 23:10 11.2 C 58 % 1021.9 hPa 0.0 mm 0.4 km/h O-NO 71 0 min 0.0 UV-I 0.0 W/m 11.2 C 3.2 km/h
08.04.2020 23:00 11.2 C 57 % 1021.8 hPa 0.0 mm 0.1 km/h O-NO 71 0 min 0.0 UV-I 0.0 W/m 11.2 C 1.6 km/h
08.04.2020 22:50 11.6 C 56 % 1021.7 hPa 0.0 mm 1.1 km/h O-NO 71 0 min 0.0 UV-I 0.0 W/m 11.6 C 4.8 km/h
08.04.2020 22:40 11.6 C 55 % 1021.8 hPa 0.0 mm 4.3 km/h O-NO 71 0 min 0.0 UV-I 0.0 W/m 11.6 C 6.4 km/h
08.04.2020 22:30 11.9 C 53 % 1021.7 hPa 0.0 mm 2.3 km/h O-NO 71 0 min 0.0 UV-I 0.0 W/m 11.9 C 8.0 km/h
08.04.2020 22:20 12.6 C 50 % 1021.7 hPa 0.0 mm 0.2 km/h N-NW 332 0 min 0.0 UV-I 0.0 W/m 12.6 C 1.6 km/h
08.04.2020 22:10 12.8 C 50 % 1021.7 hPa 0.0 mm 0.7 km/h N-NW 332 0 min 0.0 UV-I 0.0 W/m 12.8 C 3.2 km/h
08.04.2020 22:00 12.7 C 50 % 1021.6 hPa 0.0 mm 2.2 km/h N-NW 332 0 min 0.0 UV-I 0.0 W/m 12.7 C 4.8 km/h
08.04.2020 21:50 13.0 C 51 % 1021.6 hPa 0.0 mm 0.0 km/h N-NW 332 0 min 0.0 UV-I 0.0 W/m 13.0 C 0.0 km/h
08.04.2020 21:40 13.6 C 49 % 1021.6 hPa 0.0 mm 0.0 km/h N-NW 332 0 min 0.0 UV-I 0.0 W/m 13.6 C 0.0 km/h
08.04.2020 21:30 13.9 C 47 % 1021.6 hPa 0.0 mm 0.0 km/h N-NW 332 0 min 0.0 UV-I 0.0 W/m 13.9 C 0.0 km/h
08.04.2020 21:20 14.2 C 46 % 1021.5 hPa 0.0 mm 0.0 km/h N-NW 332 0 min 0.0 UV-I 0.0 W/m 14.2 C 0.0 km/h
08.04.2020 21:10 14.3 C 47 % 1021.4 hPa 0.0 mm 0.2 km/h N-NW 332 0 min 0.0 UV-I 0.0 W/m 14.3 C 1.6 km/h
08.04.2020 21:00 14.5 C 46 % 1021.3 hPa 0.0 mm 1.1 km/h N-NW 332 0 min 0.0 UV-I 0.0 W/m 14.5 C 4.8 km/h
08.04.2020 20:50 15.4 C 45 % 1021.2 hPa 0.0 mm 1.1 km/h N-NW 332 0 min 0.0 UV-I 0.0 W/m 15.4 C 3.2 km/h
08.04.2020 20:40 16.3 C 40 % 1021.2 hPa 0.0 mm 1.2 km/h N-NW 332 0 min 0.0 UV-I 0.0 W/m 16.3 C 3.2 km/h
08.04.2020 20:30 16.8 C 38 % 1021.0 hPa 0.0 mm 0.1 km/h N-NW 332 0 min 0.0 UV-I 0.0 W/m 16.8 C 3.2 km/h
08.04.2020 20:20 17.1 C 38 % 1020.9 hPa 0.0 mm 0.0 km/h N-NW 332 0 min 0.0 UV-I 0.0 W/m 17.1 C 0.0 km/h
08.04.2020 20:10 18.3 C 35 % 1020.8 hPa 0.0 mm 0.0 km/h N-NW 332 0 min 0.0 UV-I 0.0 W/m 18.3 C 0.0 km/h
08.04.2020 20:00 19.2 C 31 % 1020.8 hPa 0.0 mm 0.0 km/h N-NW 332 0 min 0.0 UV-I 7.0 W/m 19.2 C 1.6 km/h
08.04.2020 19:50 19.7 C 31 % 1020.8 hPa 0.0 mm 1.9 km/h N-NW 332 0 min 0.0 UV-I 14.0 W/m 19.7 C 6.4 km/h
08.04.2020 19:40 20.1 C 30 % 1020.7 hPa 0.0 mm 0.7 km/h N-NW 334 0 min 0.0 UV-I 21.0 W/m 20.1 C 4.8 km/h
08.04.2020 19:30 20.7 C 29 % 1020.8 hPa 0.0 mm 1.3 km/h N-NW 334 0 min 0.0 UV-I 32.0 W/m 20.7 C 4.8 km/h
08.04.2020 19:20 21.2 C 27 % 1020.7 hPa 0.0 mm 1.9 km/h N-NW 331 0 min 0.0 UV-I 53.0 W/m 21.2 C 4.8 km/h
08.04.2020 19:10 21.5 C 27 % 1020.9 hPa 0.0 mm 2.3 km/h N-NW 333 0 min 0.0 UV-I 76.0 W/m 21.5 C 4.8 km/h
08.04.2020 19:00 21.8 C 26 % 1020.8 hPa 0.0 mm 2.3 km/h W-NW 292 10 min 0.0 UV-I 102.0 W/m 21.8 C 6.4 km/h
08.04.2020 18:50 21.8 C 24 % 1020.9 hPa 0.0 mm 2.1 km/h N-NW 340 10 min 0.0 UV-I 134.0 W/m 21.8 C 8.0 km/h
08.04.2020 18:40 22.1 C 25 % 1020.9 hPa 0.0 mm 2.4 km/h W-NW 291 10 min 0.0 UV-I 169.0 W/m 22.1 C 4.8 km/h
08.04.2020 18:30 22.1 C 26 % 1020.8 hPa 0.0 mm 1.9 km/h W-NW 291 10 min 0.0 UV-I 199.0 W/m 22.1 C 8.0 km/h
08.04.2020 18:20 22.1 C 28 % 1020.7 hPa 0.0 mm 2.8 km/h NO 36 10 min 0.5 UV-I 237.0 W/m 22.1 C 6.4 km/h
08.04.2020 18:10 22.3 C 27 % 1020.8 hPa 0.0 mm 3.0 km/h NW 309 10 min 0.6 UV-I 271.0 W/m 22.3 C 8.0 km/h
08.04.2020 18:00 22.4 C 27 % 1020.8 hPa 0.0 mm 3.8 km/h W-NW 293 10 min 0.7 UV-I 299.0 W/m 22.4 C 8.0 km/h
08.04.2020 17:50 22.4 C 29 % 1020.8 hPa 0.0 mm 4.4 km/h NW 319 10 min 0.9 UV-I 332.0 W/m 22.4 C 6.4 km/h
08.04.2020 17:40 22.2 C 30 % 1020.9 hPa 0.0 mm 2.6 km/h N-NW 345 10 min 1.0 UV-I 359.0 W/m 22.2 C 6.4 km/h
08.04.2020 17:30 22.3 C 30 % 1020.9 hPa 0.0 mm 5.6 km/h W-NW 288 0 min 1.1 UV-I 88.0 W/m 22.3 C 16.1 km/h
08.04.2020 17:20 22.4 C 30 % 1021.0 hPa 0.0 mm 2.7 km/h NW 310 10 min 1.2 UV-I 404.0 W/m 22.4 C 8.0 km/h
08.04.2020 17:10 22.4 C 30 % 1021.0 hPa 0.0 mm 4.0 km/h SO 129 10 min 1.3 UV-I 443.0 W/m 22.4 C 11.3 km/h
08.04.2020 17:00 22.7 C 29 % 1021.0 hPa 0.0 mm 4.4 km/h O-NO 67 10 min 1.5 UV-I 469.0 W/m 22.7 C 12.9 km/h
08.04.2020 16:50 22.5 C 29 % 1021.1 hPa 0.0 mm 7.2 km/h NO 42 10 min 1.6 UV-I 497.0 W/m 22.5 C 16.1 km/h
08.04.2020 16:40 23.2 C 31 % 1021.2 hPa 0.0 mm 9.7 km/h O-NO 65 10 min 1.8 UV-I 531.0 W/m 23.2 C 19.3 km/h
08.04.2020 16:30 22.8 C 29 % 1021.4 hPa 0.0 mm 4.2 km/h SO 133 10 min 2.0 UV-I 563.0 W/m 22.8 C 14.5 km/h
08.04.2020 16:20 22.3 C 30 % 1021.4 hPa 0.0 mm 7.1 km/h SO 128 10 min 2.2 UV-I 571.0 W/m 22.3 C 14.5 km/h
08.04.2020 16:10 22.3 C 31 % 1021.6 hPa 0.0 mm 7.0 km/h O-SO 104 10 min 2.3 UV-I 603.0 W/m 22.3 C 14.5 km/h
08.04.2020 16:00 22.7 C 30 % 1021.8 hPa 0.0 mm 9.4 km/h O-NO 76 10 min 2.5 UV-I 628.0 W/m 22.7 C 14.5 km/h
08.04.2020 15:50 22.9 C 31 % 1021.8 hPa 0.0 mm 4.8 km/h O 90 10 min 2.7 UV-I 645.0 W/m 22.9 C 14.5 km/h
08.04.2020 15:40 22.7 C 30 % 1022.1 hPa 0.0 mm 6.1 km/h S-SO 160 10 min 2.9 UV-I 661.0 W/m 22.7 C 17.7 km/h
08.04.2020 15:30 22.2 C 31 % 1022.1 hPa 0.0 mm 4.3 km/h O 80 10 min 3.1 UV-I 679.0 W/m 22.2 C 11.3 km/h
08.04.2020 15:20 21.9 C 32 % 1022.2 hPa 0.0 mm 5.8 km/h SO 143 10 min 3.2 UV-I 689.0 W/m 21.9 C 14.5 km/h
08.04.2020 15:10 22.9 C 30 % 1022.4 hPa 0.0 mm 7.2 km/h SW 219 10 min 3.4 UV-I 703.0 W/m 22.9 C 14.5 km/h
08.04.2020 15:00 22.7 C 33 % 1022.5 hPa 0.0 mm 3.9 km/h S-SW 209 10 min 3.6 UV-I 726.0 W/m 22.7 C 9.7 km/h
08.04.2020 14:50 22.1 C 38 % 1022.6 hPa 0.0 mm 4.9 km/h NW 317 10 min 3.7 UV-I 742.0 W/m 22.1 C 14.5 km/h
08.04.2020 14:40 22.1 C 35 % 1022.8 hPa 0.0 mm 4.4 km/h N-NW 333 10 min 3.8 UV-I 742.0 W/m 22.1 C 11.3 km/h
08.04.2020 14:30 21.2 C 37 % 1022.8 hPa 0.0 mm 3.8 km/h N-NW 333 10 min 3.8 UV-I 742.0 W/m 21.2 C 11.3 km/h
08.04.2020 14:20 21.7 C 35 % 1022.9 hPa 0.0 mm 4.4 km/h N-NW 329 10 min 3.9 UV-I 751.0 W/m 21.7 C 9.7 km/h
08.04.2020 14:10 21.7 C 34 % 1023.0 hPa 0.0 mm 4.6 km/h S-SO 165 10 min 4.1 UV-I 763.0 W/m 21.7 C 11.3 km/h
08.04.2020 14:00 22.1 C 35 % 1023.2 hPa 0.0 mm 4.6 km/h S 182 10 min 4.1 UV-I 770.0 W/m 22.1 C 11.3 km/h
08.04.2020 13:50 21.4 C 37 % 1023.3 hPa 0.0 mm 4.1 km/h S-SW 208 10 min 4.2 UV-I 772.0 W/m 21.4 C 11.3 km/h
08.04.2020 13:40 21.1 C 37 % 1023.4 hPa 0.0 mm 5.1 km/h W-SW 250 10 min 4.2 UV-I 773.0 W/m 21.1 C 9.7 km/h
08.04.2020 13:30 20.8 C 38 % 1023.5 hPa 0.0 mm 4.8 km/h W 263 10 min 4.1 UV-I 770.0 W/m 20.8 C 14.5 km/h
08.04.2020 13:20 20.7 C 38 % 1023.7 hPa 0.0 mm 5.6 km/h S-SW 202 10 min 4.1 UV-I 766.0 W/m 20.7 C 12.9 km/h
08.04.2020 13:10 20.6 C 40 % 1023.7 hPa 0.0 mm 8.0 km/h SW 225 10 min 4.1 UV-I 766.0 W/m 20.6 C 12.9 km/h
08.04.2020 13:00 20.2 C 40 % 1023.9 hPa 0.0 mm 6.0 km/h W 263 10 min 4.1 UV-I 761.0 W/m 20.2 C 12.9 km/h
08.04.2020 12:50 20.2 C 41 % 1024.0 hPa 0.0 mm 5.8 km/h W-SW 257 10 min 4.0 UV-I 754.0 W/m 20.2 C 12.9 km/h
08.04.2020 12:40 19.8 C 43 % 1024.2 hPa 0.0 mm 5.9 km/h SW 215 10 min 3.9 UV-I 747.0 W/m 19.8 C 12.9 km/h
08.04.2020 12:30 19.6 C 44 % 1024.4 hPa 0.0 mm 6.6 km/h W-SW 258 10 min 3.8 UV-I 740.0 W/m 19.6 C 14.5 km/h
08.04.2020 12:20 19.2 C 42 % 1024.6 hPa 0.0 mm 5.0 km/h S 191 10 min 3.7 UV-I 728.0 W/m 19.2 C 11.3 km/h
08.04.2020 12:10 18.9 C 45 % 1024.8 hPa 0.0 mm 5.2 km/h W-SW 246 10 min 3.6 UV-I 719.0 W/m 18.9 C 12.9 km/h
08.04.2020 12:00 18.9 C 45 % 1024.9 hPa 0.0 mm 5.6 km/h SW 219 10 min 3.4 UV-I 701.0 W/m 18.9 C 14.5 km/h
08.04.2020 11:50 18.4 C 46 % 1025.1 hPa 0.0 mm 4.9 km/h SW 236 10 min 3.3 UV-I 682.0 W/m 18.4 C 9.7 km/h
08.04.2020 11:40 17.8 C 49 % 1025.2 hPa 0.0 mm 5.8 km/h W-SW 244 10 min 3.1 UV-I 666.0 W/m 17.8 C 12.9 km/h
08.04.2020 11:30 17.3 C 49 % 1025.3 hPa 0.0 mm 5.0 km/h W-SW 246 10 min 3.0 UV-I 652.0 W/m 17.3 C 12.9 km/h
08.04.2020 11:20 16.6 C 51 % 1025.4 hPa 0.0 mm 6.5 km/h W-NW 286 10 min 2.8 UV-I 638.0 W/m 16.6 C 14.5 km/h
08.04.2020 11:10 16.2 C 52 % 1025.5 hPa 0.0 mm 3.8 km/h W-SW 239 10 min 2.7 UV-I 619.0 W/m 16.2 C 11.3 km/h
08.04.2020 11:00 16.1 C 52 % 1025.6 hPa 0.0 mm 4.6 km/h SW 216 10 min 2.5 UV-I 599.0 W/m 16.1 C 11.3 km/h
08.04.2020 10:50 15.6 C 55 % 1025.8 hPa 0.0 mm 3.9 km/h W-SW 248 10 min 2.3 UV-I 577.0 W/m 15.6 C 8.0 km/h
08.04.2020 10:40 14.7 C 56 % 1025.7 hPa 0.0 mm 3.9 km/h SW 235 10 min 2.2 UV-I 550.0 W/m 14.7 C 9.7 km/h
08.04.2020 10:30 14.3 C 58 % 1025.8 hPa 0.0 mm 3.7 km/h W 269 10 min 2.0 UV-I 533.0 W/m 14.3 C 9.7 km/h
08.04.2020 10:20 13.7 C 61 % 1026.0 hPa 0.0 mm 3.7 km/h SW 236 10 min 1.8 UV-I 504.0 W/m 13.7 C 6.4 km/h
08.04.2020 10:10 13.0 C 63 % 1026.0 hPa 0.0 mm 3.6 km/h W-SW 242 10 min 1.6 UV-I 478.0 W/m 13.0 C 9.7 km/h
08.04.2020 10:00 12.5 C 62 % 1026.0 hPa 0.0 mm 3.3 km/h W-SW 242 10 min 1.5 UV-I 455.0 W/m 12.5 C 8.0 km/h
08.04.2020 09:50 11.9 C 64 % 1026.0 hPa 0.0 mm 2.5 km/h W-SW 240 10 min 1.3 UV-I 429.0 W/m 11.9 C 4.8 km/h
08.04.2020 09:40 11.5 C 64 % 1026.0 hPa 0.0 mm 3.0 km/h W-SW 244 10 min 1.2 UV-I 399.0 W/m 11.5 C 6.4 km/h
08.04.2020 09:30 11.0 C 66 % 1026.1 hPa 0.0 mm 2.7 km/h W-SW 244 10 min 1.1 UV-I 373.0 W/m 11.0 C 6.4 km/h
08.04.2020 09:20 10.5 C 69 % 1026.0 hPa 0.0 mm 2.5 km/h W-SW 242 10 min 0.9 UV-I 346.0 W/m 10.5 C 4.8 km/h
08.04.2020 09:10 9.8 C 70 % 1026.0 hPa 0.0 mm 2.4 km/h W-SW 239 10 min 0.8 UV-I 316.0 W/m 9.8 C 4.8 km/h
08.04.2020 09:00 9.5 C 71 % 1026.1 hPa 0.0 mm 3.0 km/h W-SW 242 10 min 0.7 UV-I 288.0 W/m 9.5 C 4.8 km/h
08.04.2020 08:50 8.9 C 72 % 1026.1 hPa 0.0 mm 3.3 km/h SW 230 10 min 0.5 UV-I 260.0 W/m 8.9 C 6.4 km/h
08.04.2020 08:40 8.3 C 75 % 1026.1 hPa 0.0 mm 0.8 km/h SO 134 10 min 0.5 UV-I 230.0 W/m 8.3 C 4.8 km/h
08.04.2020 08:30 7.9 C 76 % 1026.0 hPa 0.0 mm 0.9 km/h N-NO 32 10 min 0.0 UV-I 186.0 W/m 7.9 C 4.8 km/h
08.04.2020 08:20 7.2 C 79 % 1026.0 hPa 0.0 mm 0.2 km/h O-NO 65 0 min 0.0 UV-I 130.0 W/m 7.2 C 3.2 km/h
08.04.2020 08:10 6.4 C 81 % 1025.9 hPa 0.0 mm 0.2 km/h O-NO 65 0 min 0.0 UV-I 69.0 W/m 6.4 C 1.6 km/h
08.04.2020 08:00 6.2 C 81 % 1025.9 hPa 0.0 mm 0.2 km/h O-NO 65 0 min 0.0 UV-I 77.0 W/m 6.2 C 1.6 km/h
08.04.2020 07:50 5.8 C 82 % 1025.8 hPa 0.0 mm 0.0 km/h O-NO 65 0 min 0.0 UV-I 67.0 W/m 5.8 C 0.0 km/h
08.04.2020 07:40 5.3 C 83 % 1025.7 hPa 0.0 mm 0.3 km/h O-NO 65 0 min 0.0 UV-I 44.0 W/m 5.3 C 1.6 km/h
08.04.2020 07:30 4.9 C 84 % 1025.6 hPa 0.0 mm 2.5 km/h O-NO 65 0 min 0.0 UV-I 30.0 W/m 4.9 C 4.8 km/h
08.04.2020 07:20 4.9 C 83 % 1025.6 hPa 0.0 mm 3.1 km/h O-NO 65 0 min 0.0 UV-I 21.0 W/m 4.9 C 4.8 km/h
08.04.2020 07:10 4.9 C 82 % 1025.6 hPa 0.0 mm 2.0 km/h O-NO 65 0 min 0.0 UV-I 12.0 W/m 4.9 C 4.8 km/h
08.04.2020 07:00 4.8 C 83 % 1025.5 hPa 0.0 mm 0.0 km/h O-NO 65 0 min 0.0 UV-I 7.0 W/m 4.8 C 1.6 km/h
08.04.2020 06:50 4.7 C 84 % 1025.6 hPa 0.0 mm 0.2 km/h O-NO 65 0 min 0.0 UV-I 0.0 W/m 4.7 C 1.6 km/h
08.04.2020 06:40 4.4 C 83 % 1025.4 hPa 0.0 mm 0.0 km/h O-NO 65 0 min 0.0 UV-I 0.0 W/m 4.4 C 0.0 km/h
08.04.2020 06:30 4.6 C 82 % 1025.4 hPa 0.0 mm 0.0 km/h O-NO 65 0 min 0.0 UV-I 0.0 W/m 4.6 C 0.0 km/h
08.04.2020 06:20 4.9 C 82 % 1025.4 hPa 0.0 mm 1.7 km/h O-NO 65 0 min 0.0 UV-I 0.0 W/m 4.9 C 3.2 km/h
08.04.2020 06:10 5.0 C 81 % 1025.4 hPa 0.0 mm 1.9 km/h O-NO 65 0 min 0.0 UV-I 0.0 W/m 5.0 C 4.8 km/h
08.04.2020 06:00 5.3 C 80 % 1025.4 hPa 0.0 mm 1.9 km/h O-NO 65 0 min 0.0 UV-I 0.0 W/m 5.3 C 4.8 km/h
08.04.2020 05:50 5.6 C 80 % 1025.4 hPa 0.0 mm 1.9 km/h O-NO 65 0 min 0.0 UV-I 0.0 W/m 5.6 C 3.2 km/h
08.04.2020 05:40 5.5 C 81 % 1025.3 hPa 0.0 mm 0.4 km/h O-NO 65 0 min 0.0 UV-I 0.0 W/m 5.5 C 3.2 km/h
08.04.2020 05:30 5.2 C 81 % 1025.3 hPa 0.0 mm 0.0 km/h O-NO 65 0 min 0.0 UV-I 0.0 W/m 5.2 C 0.0 km/h
08.04.2020 05:20 5.2 C 81 % 1025.3 hPa 0.0 mm 0.6 km/h O-NO 65 0 min 0.0 UV-I 0.0 W/m 5.2 C 3.2 km/h
08.04.2020 05:10 5.3 C 80 % 1025.3 hPa 0.0 mm 0.4 km/h O-NO 65 0 min 0.0 UV-I 0.0 W/m 5.3 C 1.6 km/h
08.04.2020 05:00 5.4 C 79 % 1025.3 hPa 0.0 mm 1.3 km/h O-NO 65 0 min 0.0 UV-I 0.0 W/m 5.4 C 4.8 km/h
08.04.2020 04:50 5.6 C 80 % 1025.3 hPa 0.0 mm 1.0 km/h O-NO 65 0 min 0.0 UV-I 0.0 W/m 5.6 C 3.2 km/h
08.04.2020 04:40 5.8 C 78 % 1025.3 hPa 0.0 mm 0.8 km/h O-NO 65 0 min 0.0 UV-I 0.0 W/m 5.8 C 3.2 km/h
08.04.2020 04:30 5.4 C 79 % 1025.3 hPa 0.0 mm 1.8 km/h O-NO 65 0 min 0.0 UV-I 0.0 W/m 5.4 C 4.8 km/h
08.04.2020 04:20 5.7 C 78 % 1025.3 hPa 0.0 mm 0.0 km/h O-NO 65 0 min 0.0 UV-I 0.0 W/m 5.7 C 0.0 km/h
08.04.2020 04:10 6.1 C 78 % 1025.3 hPa 0.0 mm 0.0 km/h O-NO 65 0 min 0.0 UV-I 0.0 W/m 6.1 C 0.0 km/h
08.04.2020 04:00 6.1 C 77 % 1025.3 hPa 0.0 mm 0.0 km/h O-NO 65 0 min 0.0 UV-I 0.0 W/m 6.1 C 0.0 km/h
08.04.2020 03:50 5.9 C 77 % 1025.3 hPa 0.0 mm 0.0 km/h O-NO 65 0 min 0.0 UV-I 0.0 W/m 5.9 C 0.0 km/h
08.04.2020 03:40 6.2 C 76 % 1025.2 hPa 0.0 mm 0.0 km/h O-NO 65 0 min 0.0 UV-I 0.0 W/m 6.2 C 0.0 km/h
08.04.2020 03:30 6.4 C 75 % 1025.1 hPa 0.0 mm 0.0 km/h O-NO 65 0 min 0.0 UV-I 0.0 W/m 6.4 C 0.0 km/h
08.04.2020 03:20 6.3 C 74 % 1025.1 hPa 0.0 mm 0.0 km/h O-NO 65 0 min 0.0 UV-I 0.0 W/m 6.3 C 0.0 km/h
08.04.2020 03:10 6.5 C 73 % 1025.1 hPa 0.0 mm 0.0 km/h O-NO 65 0 min 0.0 UV-I 0.0 W/m 6.5 C 0.0 km/h
08.04.2020 03:00 6.6 C 73 % 1025.1 hPa 0.0 mm 0.0 km/h O-NO 65 0 min 0.0 UV-I 0.0 W/m 6.6 C 0.0 km/h
08.04.2020 02:50 7.0 C 73 % 1025.1 hPa 0.0 mm 0.0 km/h O-NO 65 0 min 0.0 UV-I 0.0 W/m 7.0 C 0.0 km/h
08.04.2020 02:40 7.2 C 71 % 1025.2 hPa 0.0 mm 0.0 km/h O-NO 65 0 min 0.0 UV-I 0.0 W/m 7.2 C 0.0 km/h
08.04.2020 02:30 7.4 C 69 % 1025.3 hPa 0.0 mm 0.0 km/h O-NO 65 0 min 0.0 UV-I 0.0 W/m 7.4 C 0.0 km/h
08.04.2020 02:20 7.3 C 69 % 1025.3 hPa 0.0 mm 0.0 km/h O-NO 65 0 min 0.0 UV-I 0.0 W/m 7.3 C 0.0 km/h
08.04.2020 02:10 7.4 C 69 % 1025.3 hPa 0.0 mm 0.0 km/h O-NO 65 0 min 0.0 UV-I 0.0 W/m 7.4 C 0.0 km/h
08.04.2020 02:00 7.8 C 69 % 1025.3 hPa 0.0 mm 0.0 km/h O-NO 65 0 min 0.0 UV-I 0.0 W/m 7.8 C 0.0 km/h
08.04.2020 01:50 8.1 C 68 % 1025.4 hPa 0.0 mm 0.3 km/h O-NO 65 0 min 0.0 UV-I 0.0 W/m 8.1 C 3.2 km/h
08.04.2020 01:40 8.4 C 67 % 1025.2 hPa 0.0 mm 0.6 km/h O-NO 65 0 min 0.0 UV-I 0.0 W/m 8.4 C 1.6 km/h
08.04.2020 01:30 8.6 C 67 % 1025.0 hPa 0.0 mm 0.2 km/h O-NO 65 0 min 0.0 UV-I 0.0 W/m 8.6 C 1.6 km/h
08.04.2020 01:20 8.9 C 67 % 1024.9 hPa 0.0 mm 0.0 km/h O-NO 65 0 min 0.0 UV-I 0.0 W/m 8.9 C 0.0 km/h
08.04.2020 01:10 9.1 C 65 % 1024.9 hPa 0.0 mm 0.0 km/h O-NO 65 0 min 0.0 UV-I 0.0 W/m 9.1 C 0.0 km/h
08.04.2020 01:00 9.4 C 64 % 1024.9 hPa 0.0 mm 0.0 km/h O-NO 65 0 min 0.0 UV-I 0.0 W/m 9.4 C 0.0 km/h
_ Min-Zeit 06:40 18:50 18:20 - 01:00 - - - - - 06:40 01:00
Minimum _ 4.4 C 24 % 1020.7 hPa - 0.0 km/h - - - - - 4.4 C 0.0 km/h
_ Max-Zeit 16:40 06:50 08:40 01:00 16:40 - - 08:30 13:40 13:40 16:40 16:40
Maximum _ 23.2 C 84 % 1026.1 hPa 0.0 mm 9.7 km/h
O-NO
- - 10 min 4.2 UV-I 773.0 W/m 23.2 C 19.3 km/h
O
Durchschnitt _ 13.6 C 55 % 1023.6 hPa #0.0 mm 2.3 km/h O-NO - #0 min. 0.0 UV-I 0.0 W/m 13.6 C 5.8 km/h